createdAt,value
2022-10-02T00:00:16.577Z,9.16
2022-10-02T00:01:16.618Z,9.18
2022-10-02T00:02:16.578Z,9.22
2022-10-02T00:03:16.559Z,9.21
2022-10-02T00:04:16.655Z,9.13
2022-10-02T00:05:16.540Z,9.21
2022-10-02T00:06:16.555Z,9.29
2022-10-02T00:07:16.534Z,9.25
2022-10-02T00:08:18.134Z,9.26
2022-10-02T00:09:16.517Z,9.31
2022-10-02T00:10:16.510Z,9.47
2022-10-02T00:11:16.527Z,9.50
2022-10-02T00:12:16.517Z,9.55
2022-10-02T00:13:16.512Z,9.64
2022-10-02T00:14:16.494Z,9.59
2022-10-02T00:15:16.486Z,9.69
2022-10-02T00:16:16.517Z,9.79
2022-10-02T00:17:16.461Z,9.68
2022-10-02T00:18:16.458Z,9.83
2022-10-02T00:19:16.465Z,9.87
2022-10-02T00:20:16.449Z,9.97
2022-10-02T00:21:16.469Z,9.92
2022-10-02T00:22:16.433Z,9.98
2022-10-02T00:23:16.421Z,10.01
2022-10-02T00:24:16.414Z,9.98
2022-10-02T00:25:16.429Z,10.04
2022-10-02T00:26:16.414Z,10.05
2022-10-02T00:27:16.401Z,10.12
2022-10-02T00:28:16.456Z,10.12
2022-10-02T00:29:16.379Z,10.12
2022-10-02T00:30:16.371Z,10.20
2022-10-02T00:31:16.464Z,10.31
2022-10-02T00:32:16.376Z,10.30
2022-10-02T00:33:16.354Z,10.28
2022-10-02T00:34:16.351Z,10.17
2022-10-02T00:35:16.347Z,10.17
2022-10-02T00:36:16.342Z,10.19
2022-10-02T00:37:16.351Z,10.12
2022-10-02T00:38:16.331Z,10.10
2022-10-02T00:39:16.327Z,10.10
2022-10-02T00:40:16.311Z,10.01
2022-10-02T00:41:16.324Z,9.91
2022-10-02T00:42:16.306Z,9.91
2022-10-02T00:43:16.331Z,9.82
2022-10-02T00:44:16.295Z,9.82
2022-10-02T00:45:16.307Z,9.95
2022-10-02T00:46:16.324Z,9.84
2022-10-02T00:47:16.283Z,9.82
2022-10-02T00:48:16.271Z,9.89
2022-10-02T00:49:16.301Z,9.76
2022-10-02T00:50:16.267Z,9.69
2022-10-02T00:51:16.242Z,9.68
2022-10-02T00:52:16.243Z,9.64
2022-10-02T00:53:16.230Z,9.47
2022-10-02T00:54:16.249Z,9.56
2022-10-02T00:55:16.212Z,9.50
2022-10-02T00:56:16.230Z,9.59
2022-10-02T00:57:16.201Z,9.50
2022-10-02T00:58:16.194Z,9.55
2022-10-02T00:59:16.186Z,9.55
2022-10-02T01:00:16.205Z,9.61
2022-10-02T01:01:16.320Z,9.73
2022-10-02T01:02:16.225Z,9.79
2022-10-02T01:03:16.164Z,9.83
2022-10-02T01:04:16.157Z,9.89
2022-10-02T01:05:16.150Z,9.87
2022-10-02T01:06:16.179Z,9.89
2022-10-02T01:07:16.124Z,9.89
2022-10-02T01:08:16.119Z,9.92
2022-10-02T01:09:16.121Z,10.01
2022-10-02T01:10:16.120Z,9.95
2022-10-02T01:11:16.101Z,9.98
2022-10-02T01:12:16.135Z,9.94
2022-10-02T01:13:16.101Z,10.02
2022-10-02T01:14:16.079Z,10.02
2022-10-02T01:15:16.076Z,10.12
2022-10-02T01:16:16.110Z,10.04
2022-10-02T01:17:16.092Z,10.09
2022-10-02T01:18:16.047Z,10.16
2022-10-02T01:19:16.042Z,10.13
2022-10-02T01:20:16.048Z,10.10
2022-10-02T01:21:16.057Z,10.15
2022-10-02T01:22:16.031Z,10.20
2022-10-02T01:23:16.040Z,10.17
2022-10-02T01:24:16.035Z,10.10
2022-10-02T01:25:16.014Z,10.10
2022-10-02T01:26:16.007Z,10.13
2022-10-02T01:27:16.002Z,10.10
2022-10-02T01:28:16.048Z,10.15
2022-10-02T01:29:15.982Z,10.07
2022-10-02T01:30:16.000Z,10.07
2022-10-02T01:31:16.088Z,10.10
2022-10-02T01:32:15.970Z,10.10
2022-10-02T01:33:15.968Z,10.04
2022-10-02T01:34:15.954Z,10.09
2022-10-02T01:35:15.935Z,10.09
2022-10-02T01:36:15.978Z,10.09
2022-10-02T01:37:15.931Z,10.02
2022-10-02T01:38:15.954Z,10.04
2022-10-02T01:39:15.907Z,10.05
2022-10-02T01:40:15.905Z,10.10
2022-10-02T01:41:15.897Z,10.04
2022-10-02T01:42:15.885Z,9.94
2022-10-02T01:43:15.910Z,9.95
2022-10-02T01:44:15.880Z,9.91
2022-10-02T01:45:15.878Z,9.87
2022-10-02T01:46:15.936Z,9.94
2022-10-02T01:47:15.854Z,9.87
2022-10-02T01:48:15.858Z,9.92
2022-10-02T01:49:15.860Z,9.83
2022-10-02T01:50:15.838Z,9.87
2022-10-02T01:51:15.833Z,9.87
2022-10-02T01:52:15.827Z,9.77
2022-10-02T01:53:15.819Z,9.80
2022-10-02T01:54:15.812Z,9.68
2022-10-02T01:55:15.824Z,9.76
2022-10-02T01:56:15.795Z,9.62
2022-10-02T01:57:15.817Z,9.69
2022-10-02T01:58:15.785Z,9.61
2022-10-02T01:59:15.771Z,9.66
2022-10-02T02:00:15.776Z,9.64
2022-10-02T02:01:15.842Z,9.72
2022-10-02T02:02:15.796Z,9.56
2022-10-02T02:03:15.750Z,9.72
2022-10-02T02:04:15.741Z,9.61
2022-10-02T02:05:15.728Z,9.66
2022-10-02T02:06:15.735Z,9.69
2022-10-02T02:07:15.746Z,9.65
2022-10-02T02:08:15.723Z,9.66
2022-10-02T02:09:15.702Z,9.61
2022-10-02T02:10:15.702Z,9.59
2022-10-02T02:11:15.725Z,9.64
2022-10-02T02:12:15.696Z,9.65
2022-10-02T02:13:15.689Z,9.65
2022-10-02T02:14:15.677Z,9.62
2022-10-02T02:15:15.674Z,9.66
2022-10-02T02:16:15.709Z,9.65
2022-10-02T02:17:15.662Z,9.66
2022-10-02T02:18:15.655Z,9.61
2022-10-02T02:19:15.652Z,9.65
2022-10-02T02:20:15.659Z,9.54
2022-10-02T02:21:15.637Z,9.54
2022-10-02T02:22:15.627Z,9.51
2022-10-02T02:23:15.618Z,9.54
2022-10-02T02:24:15.619Z,9.51
2022-10-02T02:25:15.598Z,9.62
2022-10-02T02:26:15.623Z,9.66
2022-10-02T02:27:15.582Z,9.72
2022-10-02T02:28:15.684Z,9.74
2022-10-02T02:29:15.573Z,9.69
2022-10-02T02:30:15.569Z,9.79
2022-10-02T02:31:15.625Z,9.87
2022-10-02T02:32:15.565Z,9.82
2022-10-02T02:33:15.575Z,9.73
2022-10-02T02:34:15.553Z,9.77
2022-10-02T02:35:15.547Z,9.77
2022-10-02T02:36:15.534Z,9.74
2022-10-02T02:37:15.536Z,9.80
2022-10-02T02:38:15.517Z,9.84
2022-10-02T02:39:15.534Z,9.77
2022-10-02T02:40:15.501Z,9.79
2022-10-02T02:41:15.514Z,9.77
2022-10-02T02:42:17.836Z,9.84
2022-10-02T02:43:15.517Z,9.77
2022-10-02T02:44:15.477Z,9.86
2022-10-02T02:45:15.465Z,9.94
2022-10-02T02:46:15.506Z,9.92
2022-10-02T02:47:15.451Z,10.02
2022-10-02T02:48:15.468Z,9.99
2022-10-02T02:49:15.437Z,9.99
2022-10-02T02:50:15.433Z,9.97
2022-10-02T02:51:15.433Z,9.97
2022-10-02T02:52:15.454Z,9.97
2022-10-02T02:53:15.445Z,9.97
2022-10-02T02:54:15.405Z,9.94
2022-10-02T02:55:15.406Z,9.91
2022-10-02T02:56:15.434Z,9.89
2022-10-02T02:57:15.395Z,9.95
2022-10-02T02:58:15.392Z,9.91
2022-10-02T02:59:15.374Z,9.92
2022-10-02T03:00:15.376Z,9.95
2022-10-02T03:01:15.453Z,9.95
2022-10-02T03:02:15.393Z,9.94
2022-10-02T03:03:15.366Z,9.89
2022-10-02T03:04:15.356Z,9.95
2022-10-02T03:05:15.361Z,10.01
2022-10-02T03:06:15.353Z,9.92
2022-10-02T03:07:15.354Z,9.99
2022-10-02T03:08:15.330Z,9.98
2022-10-02T03:09:15.329Z,10.04
2022-10-02T03:10:15.315Z,9.99
2022-10-02T03:11:15.318Z,10.07
2022-10-02T03:12:15.328Z,9.94
2022-10-02T03:13:15.305Z,9.98
2022-10-02T03:14:15.293Z,9.98
2022-10-02T03:15:15.289Z,10.01
2022-10-02T03:16:15.330Z,9.94
2022-10-02T03:17:15.302Z,9.84
2022-10-02T03:18:15.280Z,9.95
2022-10-02T03:19:15.268Z,9.92
2022-10-02T03:20:15.259Z,9.99
2022-10-02T03:21:15.248Z,9.91
2022-10-02T03:22:15.250Z,9.94
2022-10-02T03:23:15.263Z,9.92
2022-10-02T03:24:15.258Z,9.92
2022-10-02T03:25:15.245Z,9.83
2022-10-02T03:26:15.228Z,9.98
2022-10-02T03:27:15.218Z,9.83
2022-10-02T03:28:15.256Z,9.94
2022-10-02T03:29:15.213Z,9.97
2022-10-02T03:30:15.213Z,9.91
2022-10-02T03:31:15.248Z,10.04
2022-10-02T03:32:15.192Z,9.95
2022-10-02T03:33:15.184Z,9.92
2022-10-02T03:34:15.171Z,9.97
2022-10-02T03:35:15.162Z,9.84
2022-10-02T03:36:15.166Z,9.91
2022-10-02T03:37:15.187Z,9.87
2022-10-02T03:38:15.147Z,9.86
2022-10-02T03:39:30.466Z,9.84
2022-10-02T03:40:16.137Z,9.76
2022-10-02T03:41:15.126Z,9.84
2022-10-02T03:42:15.125Z,9.86
2022-10-02T03:43:15.134Z,9.80
2022-10-02T03:44:15.108Z,9.80
2022-10-02T03:45:32.767Z,9.82
2022-10-02T03:46:16.160Z,9.76
2022-10-02T03:47:15.115Z,9.83
2022-10-02T03:48:15.085Z,9.79
2022-10-02T03:49:15.079Z,9.77
2022-10-02T03:50:15.089Z,9.80
2022-10-02T03:51:15.063Z,9.86
2022-10-02T03:52:15.063Z,9.91
2022-10-02T03:53:15.073Z,9.94
2022-10-02T03:54:15.049Z,9.97
2022-10-02T03:55:15.040Z,10.01
2022-10-02T03:56:15.062Z,10.01
2022-10-02T03:57:15.033Z,10.02
2022-10-02T03:58:15.029Z,10.13
2022-10-02T03:59:15.015Z,10.07
2022-10-02T04:00:15.036Z,10.09
2022-10-02T04:01:15.041Z,10.04
2022-10-02T04:02:15.036Z,10.13
2022-10-02T04:03:15.045Z,10.10
2022-10-02T04:04:14.995Z,10.05
2022-10-02T04:05:14.995Z,10.16
2022-10-02T04:06:14.981Z,10.07
2022-10-02T04:07:14.962Z,10.15
2022-10-02T04:08:14.959Z,10.09
2022-10-02T04:09:14.977Z,10.10
2022-10-02T04:10:14.948Z,10.12
2022-10-02T04:11:14.941Z,10.10
2022-10-02T04:12:14.948Z,10.01
2022-10-02T04:13:14.941Z,10.17
2022-10-02T04:14:14.922Z,10.05
2022-10-02T04:15:14.941Z,10.16
2022-10-02T04:16:14.957Z,10.15
2022-10-02T04:17:14.903Z,10.16
2022-10-02T04:18:14.899Z,10.17
2022-10-02T04:19:14.886Z,10.20
2022-10-02T04:20:14.887Z,10.37
2022-10-02T04:21:14.913Z,10.42
2022-10-02T04:22:14.869Z,10.40
2022-10-02T04:23:14.855Z,10.37
2022-10-02T04:24:14.854Z,10.37
2022-10-02T04:25:14.847Z,10.61
2022-10-02T04:26:14.849Z,10.57
2022-10-02T04:27:14.849Z,10.46
2022-10-02T04:28:14.910Z,10.59
2022-10-02T04:29:14.823Z,10.46
2022-10-02T04:30:14.819Z,10.37
2022-10-02T04:31:14.862Z,10.42
2022-10-02T04:32:14.832Z,10.41
2022-10-02T04:33:14.797Z,10.51
2022-10-02T04:34:14.797Z,10.46
2022-10-02T04:35:14.802Z,10.42
2022-10-02T04:36:14.784Z,10.44
2022-10-02T04:37:14.762Z,10.42
2022-10-02T04:38:14.757Z,10.44
2022-10-02T04:39:14.772Z,10.48
2022-10-02T04:40:14.739Z,10.46
2022-10-02T04:41:14.792Z,10.51
2022-10-02T04:42:14.736Z,10.49
2022-10-02T04:43:14.729Z,10.53
2022-10-02T04:44:14.721Z,10.53
2022-10-02T04:45:14.715Z,10.57
2022-10-02T04:46:14.727Z,10.56
2022-10-02T04:47:14.725Z,10.56
2022-10-02T04:48:14.697Z,10.63
2022-10-02T04:49:14.681Z,10.67
2022-10-02T04:50:14.677Z,10.69
2022-10-02T04:51:14.677Z,10.64
2022-10-02T04:52:14.723Z,10.63
2022-10-02T04:53:14.719Z,10.61
2022-10-02T04:54:14.658Z,10.57
2022-10-02T04:55:14.646Z,10.53
2022-10-02T04:56:14.643Z,10.57
2022-10-02T04:57:14.629Z,10.51
2022-10-02T04:58:14.653Z,10.56
2022-10-02T04:59:14.632Z,10.48
2022-10-02T05:00:14.617Z,10.59
2022-10-02T05:01:14.682Z,10.48
2022-10-02T05:02:14.682Z,10.56
2022-10-02T05:03:14.594Z,10.57
2022-10-02T05:04:14.594Z,10.61
2022-10-02T05:05:14.600Z,10.59
2022-10-02T05:06:14.586Z,10.63
2022-10-02T05:07:14.589Z,10.53
2022-10-02T05:08:14.573Z,10.57
2022-10-02T05:09:14.566Z,10.57
2022-10-02T05:10:14.549Z,10.51
2022-10-02T05:11:14.552Z,10.57
2022-10-02T05:12:14.569Z,10.53
2022-10-02T05:13:14.534Z,10.56
2022-10-02T05:14:14.565Z,10.54
2022-10-02T05:15:14.514Z,10.49
2022-10-02T05:16:14.569Z,10.68
2022-10-02T05:17:14.508Z,10.67
2022-10-02T05:18:17.855Z,10.57
2022-10-02T05:19:14.505Z,10.69
2022-10-02T05:20:14.489Z,10.67
2022-10-02T05:21:14.488Z,10.64
2022-10-02T05:22:14.476Z,10.78
2022-10-02T05:23:14.475Z,10.71
2022-10-02T05:24:14.487Z,10.67
2022-10-02T05:25:14.471Z,10.68
2022-10-02T05:26:14.679Z,10.72
2022-10-02T05:27:14.468Z,10.75
2022-10-02T05:28:14.460Z,10.82
2022-10-02T05:29:14.434Z,10.79
2022-10-02T05:30:14.448Z,10.89
2022-10-02T05:31:14.461Z,10.97
2022-10-02T05:32:14.414Z,10.93
2022-10-02T05:33:14.421Z,11.00
2022-10-02T05:34:14.398Z,10.84
2022-10-02T05:35:14.409Z,11.12
2022-10-02T05:36:14.389Z,10.99
2022-10-02T05:37:14.379Z,11.08
2022-10-02T05:38:14.373Z,10.96
2022-10-02T05:39:14.363Z,11.00
2022-10-02T05:40:14.359Z,11.08
2022-10-02T05:41:14.382Z,11.04
2022-10-02T05:42:14.334Z,11.02
2022-10-02T05:43:14.330Z,10.99
2022-10-02T05:44:14.324Z,10.97
2022-10-02T05:45:14.316Z,11.08
2022-10-02T05:46:14.358Z,11.04
2022-10-02T05:47:14.325Z,11.10
2022-10-02T05:48:14.295Z,10.99
2022-10-02T05:49:14.284Z,11.12
2022-10-02T05:50:14.282Z,11.11
2022-10-02T05:51:14.271Z,11.02
2022-10-02T05:52:14.271Z,11.14
2022-10-02T05:53:14.282Z,11.11
2022-10-02T05:54:14.252Z,11.12
2022-10-02T05:55:14.246Z,11.15
2022-10-02T05:56:14.244Z,11.11
2022-10-02T05:57:14.233Z,11.12
2022-10-02T05:58:14.245Z,11.27
2022-10-02T05:59:14.224Z,11.29
2022-10-02T06:00:14.215Z,11.36
2022-10-02T06:01:14.238Z,11.32
2022-10-02T06:02:14.225Z,11.33
2022-10-02T06:03:14.184Z,11.36
2022-10-02T06:04:14.212Z,11.41
2022-10-02T06:05:14.176Z,11.40
2022-10-02T06:06:14.177Z,11.40
2022-10-02T06:07:14.163Z,11.41
2022-10-02T06:08:14.183Z,11.51
2022-10-02T06:09:19.008Z,11.63
2022-10-02T06:10:14.146Z,11.60
2022-10-02T06:11:14.140Z,11.65
2022-10-02T06:12:14.155Z,11.80
2022-10-02T06:13:14.156Z,11.72
2022-10-02T06:14:14.145Z,11.84
2022-10-02T06:15:14.115Z,11.91
2022-10-02T06:16:14.162Z,11.84
2022-10-02T06:17:14.096Z,11.84
2022-10-02T06:18:14.105Z,11.91
2022-10-02T06:19:14.077Z,11.94
2022-10-02T06:20:14.072Z,11.97
2022-10-02T06:21:14.070Z,11.99
2022-10-02T06:22:14.064Z,12.02
2022-10-02T06:23:14.072Z,12.07
2022-10-02T06:24:14.053Z,12.10
2022-10-02T06:25:14.049Z,12.07
2022-10-02T06:26:14.038Z,12.17
2022-10-02T06:27:14.031Z,12.09
2022-10-02T06:28:14.122Z,12.15
2022-10-02T06:29:18.644Z,12.13
2022-10-02T06:30:14.011Z,12.20
2022-10-02T06:31:14.062Z,12.17
2022-10-02T06:32:14.000Z,12.17
2022-10-02T06:33:13.984Z,12.20
2022-10-02T06:34:14.003Z,12.21
2022-10-02T06:35:13.963Z,12.29
2022-10-02T06:36:13.961Z,12.27
2022-10-02T06:37:13.953Z,12.25
2022-10-02T06:38:13.946Z,12.29
2022-10-02T06:39:13.963Z,12.45
2022-10-02T06:40:13.938Z,12.37
2022-10-02T06:41:13.930Z,12.36
2022-10-02T06:42:13.921Z,12.37
2022-10-02T06:43:13.907Z,12.32
2022-10-02T06:44:13.903Z,12.35
2022-10-02T06:45:13.921Z,12.42
2022-10-02T06:46:14.047Z,12.47
2022-10-02T06:47:13.878Z,12.40
2022-10-02T06:48:13.874Z,12.50
2022-10-02T06:49:13.873Z,12.50
2022-10-02T06:50:13.874Z,12.49
2022-10-02T06:51:13.869Z,12.55
2022-10-02T06:52:13.847Z,12.53
2022-10-02T06:53:13.840Z,12.49
2022-10-02T06:54:13.838Z,12.49
2022-10-02T06:55:13.824Z,12.58
2022-10-02T06:56:13.848Z,12.53
2022-10-02T06:57:13.807Z,12.62
2022-10-02T06:58:13.817Z,12.57
2022-10-02T06:59:13.802Z,12.67
2022-10-02T07:00:13.794Z,12.65
2022-10-02T07:01:13.866Z,12.64
2022-10-02T07:02:13.803Z,12.61
2022-10-02T07:03:13.784Z,12.70
2022-10-02T07:04:13.772Z,12.68
2022-10-02T07:05:13.756Z,12.78
2022-10-02T07:06:13.747Z,12.73
2022-10-02T07:07:13.757Z,12.68
2022-10-02T07:08:13.732Z,12.61
2022-10-02T07:09:13.728Z,12.65
2022-10-02T07:10:13.721Z,12.60
2022-10-02T07:11:13.715Z,12.53
2022-10-02T07:12:13.722Z,12.58
2022-10-02T07:13:13.696Z,12.40
2022-10-02T07:14:13.693Z,12.61
2022-10-02T07:15:13.698Z,12.55
2022-10-02T07:16:13.744Z,12.54
2022-10-02T07:17:13.677Z,12.57
2022-10-02T07:18:13.659Z,12.57
2022-10-02T07:19:13.655Z,12.60
2022-10-02T07:20:13.640Z,12.73
2022-10-02T07:21:13.656Z,12.70
2022-10-02T07:22:39.621Z,12.70
2022-10-02T07:23:14.655Z,12.68
2022-10-02T07:24:13.628Z,12.87
2022-10-02T07:25:13.619Z,12.83
2022-10-02T07:26:13.608Z,12.79
2022-10-02T07:27:13.602Z,12.79
2022-10-02T07:28:13.608Z,12.80
2022-10-02T07:29:13.606Z,12.82
2022-10-02T07:30:13.572Z,12.79
2022-10-02T07:31:13.645Z,12.82
2022-10-02T07:32:13.556Z,12.90
2022-10-02T07:33:13.565Z,12.86
2022-10-02T07:34:13.553Z,12.91
2022-10-02T07:35:13.532Z,12.80
2022-10-02T07:36:13.570Z,12.73
2022-10-02T07:37:13.517Z,12.82
2022-10-02T07:38:13.509Z,12.93
2022-10-02T07:39:13.500Z,12.83
2022-10-02T07:40:13.502Z,12.79
2022-10-02T07:41:13.490Z,12.87
2022-10-02T07:42:13.504Z,12.83
2022-10-02T07:43:13.523Z,12.91
2022-10-02T07:44:13.488Z,12.87
2022-10-02T07:45:13.460Z,12.93
2022-10-02T07:46:13.516Z,12.91
2022-10-02T07:47:13.452Z,12.90
2022-10-02T07:48:13.444Z,12.90
2022-10-02T07:49:13.460Z,12.87
2022-10-02T07:50:13.430Z,12.91
2022-10-02T07:51:14.648Z,12.91
2022-10-02T07:52:13.431Z,13.00
2022-10-02T07:53:13.409Z,12.98
2022-10-02T07:54:13.394Z,13.00
2022-10-02T07:55:13.411Z,13.01
2022-10-02T07:56:13.390Z,12.91
2022-10-02T07:57:13.385Z,12.93
2022-10-02T07:58:13.369Z,12.78
2022-10-02T07:59:13.366Z,12.83
2022-10-02T08:00:13.386Z,12.87
2022-10-02T08:01:13.340Z,12.86
2022-10-02T08:02:13.573Z,12.97
2022-10-02T08:03:13.374Z,13.01
2022-10-02T08:04:13.335Z,12.98
2022-10-02T08:05:13.318Z,13.05
2022-10-02T08:06:13.334Z,13.08
2022-10-02T08:07:13.309Z,13.18
2022-10-02T08:08:13.302Z,13.13
2022-10-02T08:09:13.291Z,13.30
2022-10-02T08:10:13.328Z,13.39
2022-10-02T08:11:13.296Z,13.46
2022-10-02T08:12:13.277Z,13.74
2022-10-02T08:13:13.258Z,13.97
2022-10-02T08:14:13.254Z,14.15
2022-10-02T08:15:13.242Z,14.32
2022-10-02T08:16:13.295Z,14.65
2022-10-02T08:17:13.248Z,14.68
2022-10-02T08:18:33.239Z,14.89
2022-10-02T08:19:14.217Z,15.11
2022-10-02T08:20:13.221Z,15.18
2022-10-02T08:21:13.204Z,15.47
2022-10-02T08:22:13.216Z,16.02
2022-10-02T08:23:13.186Z,17.41
2022-10-02T08:24:13.186Z,17.51
2022-10-02T08:25:13.185Z,18.00
2022-10-02T08:26:13.192Z,18.18
2022-10-02T08:27:13.154Z,17.67
2022-10-02T08:28:13.169Z,17.31
2022-10-02T08:29:13.159Z,17.06
2022-10-02T08:30:13.152Z,16.96
2022-10-02T08:31:13.156Z,16.79
2022-10-02T08:32:13.141Z,16.57
2022-10-02T08:33:13.135Z,16.38
2022-10-02T08:34:13.165Z,16.13
2022-10-02T08:35:13.119Z,15.91
2022-10-02T08:36:13.102Z,15.64
2022-10-02T08:37:13.087Z,15.57
2022-10-02T08:38:13.106Z,15.46
2022-10-02T08:39:13.081Z,15.35
2022-10-02T08:40:13.064Z,15.24
2022-10-02T08:41:13.087Z,15.10
2022-10-02T08:42:13.052Z,15.11
2022-10-02T08:43:13.102Z,14.97
2022-10-02T08:44:13.032Z,14.94
2022-10-02T08:45:13.018Z,14.72
2022-10-02T08:46:13.094Z,14.69
2022-10-02T08:47:13.004Z,14.58
2022-10-02T08:48:12.991Z,14.54
2022-10-02T08:49:12.991Z,14.47
2022-10-02T08:50:12.983Z,14.41
2022-10-02T08:51:12.975Z,14.48
2022-10-02T08:52:12.987Z,14.44
2022-10-02T08:53:12.978Z,14.32
2022-10-02T08:54:13.488Z,14.37
2022-10-02T08:55:12.947Z,14.35
2022-10-02T08:56:16.422Z,14.35
2022-10-02T08:57:12.937Z,14.41
2022-10-02T08:58:12.976Z,14.33
2022-10-02T08:59:12.939Z,14.33
2022-10-02T09:00:12.902Z,14.33
2022-10-02T09:01:12.940Z,14.32
2022-10-02T09:02:12.944Z,14.41
2022-10-02T09:03:12.889Z,14.43
2022-10-02T09:04:12.956Z,14.41
2022-10-02T09:05:12.892Z,14.50
2022-10-02T09:06:12.875Z,14.48
2022-10-02T09:07:12.868Z,14.41
2022-10-02T09:08:12.836Z,14.45
2022-10-02T09:09:12.835Z,14.47
2022-10-02T09:10:12.828Z,14.48
2022-10-02T09:11:12.813Z,14.45
2022-10-02T09:12:12.819Z,14.43
2022-10-02T09:13:12.834Z,14.53
2022-10-02T09:14:12.792Z,14.54
2022-10-02T09:15:12.798Z,14.59
2022-10-02T09:16:12.829Z,14.63
2022-10-02T09:17:12.772Z,14.66
2022-10-02T09:18:12.802Z,14.66
2022-10-02T09:19:12.756Z,14.62
2022-10-02T09:20:12.759Z,14.68
2022-10-02T09:21:12.748Z,14.66
2022-10-02T09:22:12.737Z,14.70
2022-10-02T09:23:12.747Z,14.62
2022-10-02T09:24:12.735Z,14.63
2022-10-02T09:25:12.719Z,14.65
2022-10-02T09:26:12.711Z,14.69
2022-10-02T09:27:12.711Z,14.70
2022-10-02T09:28:12.759Z,14.69
2022-10-02T09:29:12.678Z,14.79
2022-10-02T09:30:12.675Z,14.78
2022-10-02T09:31:12.683Z,14.81
2022-10-02T09:32:12.664Z,14.78
2022-10-02T09:33:15.842Z,14.84
2022-10-02T09:34:12.675Z,14.84
2022-10-02T09:35:12.655Z,14.86
2022-10-02T09:36:12.633Z,14.82
2022-10-02T09:37:12.615Z,14.88
2022-10-02T09:38:12.609Z,14.81
2022-10-02T09:39:12.606Z,14.73
2022-10-02T09:40:12.625Z,14.78
2022-10-02T09:41:12.591Z,14.69
2022-10-02T09:42:12.581Z,14.69
2022-10-02T09:43:12.574Z,14.68
2022-10-02T09:44:12.561Z,14.65
2022-10-02T09:45:12.562Z,14.63
2022-10-02T09:46:12.698Z,14.59
2022-10-02T09:47:12.553Z,14.60
2022-10-02T09:48:12.542Z,14.58
2022-10-02T09:49:12.529Z,14.62
2022-10-02T09:50:12.514Z,14.63
2022-10-02T09:51:12.518Z,14.68
2022-10-02T09:52:12.537Z,14.68
2022-10-02T09:53:12.502Z,14.68
2022-10-02T09:54:12.490Z,14.66
2022-10-02T09:55:12.484Z,14.63
2022-10-02T09:56:12.476Z,14.58
2022-10-02T09:57:12.502Z,14.62
2022-10-02T09:58:12.476Z,14.66
2022-10-02T09:59:12.481Z,14.69
2022-10-02T10:00:12.437Z,14.62
2022-10-02T10:01:12.475Z,14.59
2022-10-02T10:02:12.503Z,14.65
2022-10-02T10:03:12.438Z,14.73
2022-10-02T10:04:12.432Z,14.70
2022-10-02T10:05:12.427Z,14.72
2022-10-02T10:06:12.408Z,14.85
2022-10-02T10:07:13.384Z,14.79
2022-10-02T10:08:12.383Z,14.91
2022-10-02T10:09:12.393Z,14.89
2022-10-02T10:10:12.379Z,14.94
2022-10-02T10:11:12.356Z,14.92
2022-10-02T10:12:12.354Z,15.06
2022-10-02T10:13:12.383Z,14.99
2022-10-02T10:14:12.347Z,14.96
2022-10-02T10:15:12.328Z,14.94
2022-10-02T10:16:12.367Z,14.91
2022-10-02T10:17:12.303Z,14.91
2022-10-02T10:18:12.295Z,14.97
2022-10-02T10:19:12.327Z,15.09
2022-10-02T10:20:12.336Z,15.11
2022-10-02T10:21:12.277Z,15.03
2022-10-02T10:22:12.272Z,15.06
2022-10-02T10:23:12.261Z,15.09
2022-10-02T10:24:12.263Z,15.06
2022-10-02T10:25:12.269Z,15.06
2022-10-02T10:26:12.269Z,15.06
2022-10-02T10:27:12.232Z,15.03
2022-10-02T10:28:19.296Z,15.10
2022-10-02T10:29:12.232Z,14.97
2022-10-02T10:30:12.270Z,14.97
2022-10-02T10:31:12.303Z,15.03
2022-10-02T10:32:12.190Z,15.02
2022-10-02T10:33:12.184Z,15.03
2022-10-02T10:34:12.178Z,15.11
2022-10-02T10:35:12.168Z,15.18
2022-10-02T10:36:12.194Z,15.14
2022-10-02T10:37:12.155Z,15.15
2022-10-02T10:38:12.152Z,15.24
2022-10-02T10:39:12.140Z,15.18
2022-10-02T10:40:12.152Z,15.19
2022-10-02T10:41:12.149Z,15.15
2022-10-02T10:42:12.115Z,15.17
2022-10-02T10:43:16.465Z,15.21
2022-10-02T10:44:12.095Z,15.17
2022-10-02T10:45:12.101Z,15.29
2022-10-02T10:46:12.137Z,15.35
2022-10-02T10:47:12.078Z,15.36
2022-10-02T10:48:12.070Z,15.42
2022-10-02T10:49:12.077Z,15.47
2022-10-02T10:50:12.057Z,15.57
2022-10-02T10:51:12.044Z,15.65
2022-10-02T10:52:12.041Z,15.59
2022-10-02T10:53:12.025Z,15.75
2022-10-02T10:54:12.053Z,15.88
2022-10-02T10:55:12.033Z,15.97
2022-10-02T10:56:12.040Z,16.12
2022-10-02T10:57:11.999Z,16.12
2022-10-02T10:58:11.990Z,16.28
2022-10-02T10:59:11.980Z,16.17
2022-10-02T11:00:11.991Z,16.17
2022-10-02T11:01:12.034Z,16.16
2022-10-02T11:02:12.033Z,16.24
2022-10-02T11:03:11.966Z,16.35
2022-10-02T11:04:11.945Z,16.29
2022-10-02T11:05:11.930Z,16.35
2022-10-02T11:06:11.918Z,16.31
2022-10-02T11:07:11.921Z,16.39
2022-10-02T11:08:11.919Z,16.32
2022-10-02T11:09:11.921Z,16.41
2022-10-02T11:10:11.887Z,16.20
2022-10-02T11:11:11.878Z,16.15
2022-10-02T11:12:11.875Z,16.33
2022-10-02T11:13:11.875Z,16.29
2022-10-02T11:14:11.854Z,16.31
2022-10-02T11:15:11.879Z,16.23
2022-10-02T11:16:11.872Z,16.32
2022-10-02T11:17:11.831Z,16.36
2022-10-02T11:18:11.838Z,16.42
2022-10-02T11:19:11.842Z,16.38
2022-10-02T11:20:11.838Z,16.29
2022-10-02T11:21:11.807Z,16.15
2022-10-02T11:22:11.791Z,16.20
2022-10-02T11:23:11.794Z,16.13
2022-10-02T11:24:11.789Z,16.09
2022-10-02T11:25:13.087Z,16.00
2022-10-02T11:26:11.802Z,16.01
2022-10-02T11:27:11.759Z,15.92
2022-10-02T11:28:11.792Z,15.98
2022-10-02T11:29:11.743Z,15.95
2022-10-02T11:30:11.762Z,16.02
2022-10-02T11:31:11.820Z,15.98
2022-10-02T11:32:11.709Z,15.92
2022-10-02T11:33:11.707Z,15.82
2022-10-02T11:34:11.733Z,15.79
2022-10-02T11:35:11.714Z,15.77
2022-10-02T11:36:11.694Z,15.82
2022-10-02T11:37:11.671Z,15.82
2022-10-02T11:38:11.691Z,15.91
2022-10-02T11:39:11.660Z,15.84
2022-10-02T11:40:11.648Z,15.90
2022-10-02T11:41:11.641Z,15.91
2022-10-02T11:42:11.639Z,15.95
2022-10-02T11:43:11.627Z,15.92
2022-10-02T11:44:11.650Z,15.90
2022-10-02T11:45:11.615Z,15.91
2022-10-02T11:46:11.679Z,15.92
2022-10-02T11:47:11.591Z,15.91
2022-10-02T11:48:11.601Z,15.98
2022-10-02T11:49:11.603Z,15.95
2022-10-02T11:50:11.612Z,16.05
2022-10-02T11:51:11.564Z,16.05
2022-10-02T11:52:11.563Z,16.09
2022-10-02T11:53:11.558Z,16.08
2022-10-02T11:54:11.549Z,16.20
2022-10-02T11:55:11.531Z,16.09
2022-10-02T11:56:11.580Z,16.04
2022-10-02T11:57:11.532Z,16.05
2022-10-02T11:58:11.524Z,16.15
2022-10-02T11:59:11.522Z,15.97
2022-10-02T12:00:11.502Z,15.94
2022-10-02T12:01:11.490Z,16.01
2022-10-02T12:02:15.606Z,16.00
2022-10-02T12:03:11.559Z,15.95
2022-10-02T12:04:11.473Z,15.88
2022-10-02T12:05:11.492Z,15.91
2022-10-02T12:06:11.481Z,15.94
2022-10-02T12:07:11.446Z,15.94
2022-10-02T12:08:11.446Z,16.00
2022-10-02T12:09:11.434Z,16.05
2022-10-02T12:10:11.424Z,16.13
2022-10-02T12:11:11.445Z,16.17
2022-10-02T12:12:11.402Z,16.24
2022-10-02T12:13:11.381Z,16.26
2022-10-02T12:14:11.385Z,16.31
2022-10-02T12:15:11.376Z,16.33
2022-10-02T12:16:11.449Z,16.46
2022-10-02T12:17:11.389Z,16.42
2022-10-02T12:18:11.347Z,16.33
2022-10-02T12:19:11.361Z,16.42
2022-10-02T12:20:11.351Z,16.49
2022-10-02T12:21:11.336Z,16.50
2022-10-02T12:22:11.326Z,16.46
2022-10-02T12:23:11.332Z,16.46
2022-10-02T12:24:11.347Z,16.36
2022-10-02T12:25:11.315Z,16.41
2022-10-02T12:26:11.284Z,16.31
2022-10-02T12:27:11.278Z,16.24
2022-10-02T12:28:11.320Z,16.16
2022-10-02T12:29:11.274Z,16.24
2022-10-02T12:30:11.269Z,16.41
2022-10-02T12:31:11.250Z,16.31
2022-10-02T12:32:11.278Z,16.49
2022-10-02T12:33:11.237Z,16.57
2022-10-02T12:34:11.264Z,16.65
2022-10-02T12:35:11.227Z,16.81
2022-10-02T12:36:11.206Z,16.87
2022-10-02T12:37:11.192Z,17.01
2022-10-02T12:38:11.201Z,17.16
2022-10-02T12:39:11.180Z,17.34
2022-10-02T12:40:11.204Z,17.57
2022-10-02T12:41:11.180Z,17.68
2022-10-02T12:42:11.172Z,17.57
2022-10-02T12:43:11.173Z,17.56
2022-10-02T12:44:11.140Z,17.63
2022-10-02T12:45:12.042Z,17.68
2022-10-02T12:46:11.183Z,17.82
2022-10-02T12:47:11.132Z,17.87
2022-10-02T12:48:11.117Z,18.03
2022-10-02T12:49:11.111Z,18.10
2022-10-02T12:50:11.135Z,18.13
2022-10-02T12:51:11.086Z,17.95
2022-10-02T12:52:11.102Z,18.08
2022-10-02T12:53:11.106Z,18.07
2022-10-02T12:54:11.089Z,18.00
2022-10-02T12:55:11.061Z,18.08
2022-10-02T12:56:11.057Z,18.10
2022-10-02T12:57:11.041Z,18.05
2022-10-02T12:58:11.066Z,17.90